Bascom, Texas
Current Conditions -  °F | °C
As of 9:53 PM on Saturday 25 Oct 2014 (Local Time) from KTYR Reporting Station
Clear Clear  
Wind Chill: 67°   Ceiling: Unl
Heat Index: 67°   Visibility: 10mi
Dew Point: 63°   Wind: 7mph
Humidity: 87%   Direction: 180°S
Pressure: 30.08"   Gusts: NA
Location:  32.3665°N, 95.1299°W
Report Text: KTYR 260253Z AUTO 18006KT 10SM CLR 19/17 A3008 RMK AO2 SLP180 T01940172 52003
Loading
Personal Weather Stations






























Interactive Weather Map
Tropical Storm Tracking
New forecast layout! Learn more

10-Day Weather Forecast

Advertisements
Track Severe Weather on mobile